Time;durP1;ratioP1;P1;durP2;ratioP2;P2;SDS_P1;SDS_P2;PMS_P1;PMS_P2;Temp;Humidity;BMP_temperature;BMP_pressure;BME280_temperature;BME280_humidity;BME280_pressure;Samples;Min_cycle;Max_cycle;Signal;HPM_P1;HPM_P2
2021/09/25 00:02:20;;;;;;;11.50;7.42;;;;;;;8.40;86.26;97799.14;1738844;82;21014;-80
2021/09/25 00:04:47;;;;;;;13.20;7.05;;;;;;;8.37;86.69;97804.04;1745074;82;21014;-80
2021/09/25 00:07:13;;;;;;;11.65;7.05;;;;;;;8.36;86.45;97806.27;1745038;82;21030;-80
2021/09/25 00:09:40;;;;;;;9.78;7.28;;;;;;;8.33;86.85;97811.61;1745271;81;20935;-80
2021/09/25 00:12:14;;;;;;;12.95;7.25;;;;;;;8.36;86.86;97814.63;1744840;82;21050;-80
2021/09/25 00:14:42;;;;;;;12.13;7.87;;;;;;;8.34;86.61;97809.85;1745086;82;21070;-81
2021/09/25 00:17:11;;;;;;;11.10;7.10;;;;;;;8.32;86.72;97813.37;1744922;82;21074;-81
2021/09/25 00:19:42;;;;;;;10.93;7.40;;;;;;;8.31;86.72;97811.64;1754974;81;20966;-81
2021/09/25 00:22:08;;;;;;;12.25;7.65;;;;;;;8.29;86.34;97817.86;1759000;81;20993;-81
2021/09/25 00:24:35;;;;;;;10.65;6.85;;;;;;;8.21;86.23;97809.27;1744800;82;21403;-81
2021/09/25 00:27:03;;;;;;;11.00;7.03;;;;;;;8.16;85.96;97816.84;1744792;82;21049;-81
2021/09/25 00:29:29;;;;;;;13.53;7.80;;;;;;;8.10;86.25;97814.78;1771266;81;21041;-81
2021/09/25 00:31:55;;;;;;;13.35;7.28;;;;;;;8.05;86.21;97811.80;1775441;81;21041;-80
2021/09/25 00:34:22;;;;;;;11.55;6.55;;;;;;;7.99;85.61;97818.53;1766117;79;21022;-79
2021/09/25 00:36:49;;;;;;;13.65;7.67;;;;;;;7.88;85.58;97829.31;1753587;82;21483;-80
2021/09/25 00:39:16;;;;;;;11.95;7.83;;;;;;;7.78;86.33;97825.98;1753442;81;21049;-80
2021/09/25 00:41:43;;;;;;;11.40;7.58;;;;;;;7.72;85.98;97835.36;1753341;82;21002;-80
2021/09/25 00:44:09;;;;;;;11.10;8.13;;;;;;;7.62;85.73;97833.38;1753333;81;21045;-80
2021/09/25 00:46:36;;;;;;;13.83;7.72;;;;;;;7.55;85.66;97828.25;1769563;81;21000;-80
2021/09/25 00:49:03;;;;;;;13.70;8.18;;;;;;;7.49;86.24;97827.48;1777592;80;21001;-80
2021/09/25 00:51:29;;;;;;;12.05;8.43;;;;;;;7.46;85.98;97839.39;1753778;80;20990;-80
2021/09/25 00:53:56;;;;;;;13.15;7.70;;;;;;;7.44;86.30;97837.69;1753425;82;21039;-80
2021/09/25 00:56:24;;;;;;;13.45;8.23;;;;;;;7.41;85.97;97842.58;1755839;82;21018;-80
2021/09/25 00:58:52;;;;;;;12.60;8.38;;;;;;;7.36;87.02;97842.64;1775614;79;20989;-80
2021/09/25 01:01:18;;;;;;;15.50;8.70;;;;;;;7.36;86.48;97843.11;1782466;81;21402;-81
2021/09/25 01:03:45;;;;;;;12.30;8.05;;;;;;;7.32;86.97;97846.27;1781418;81;21071;-80
2021/09/25 01:06:11;;;;;;;11.30;7.50;;;;;;;7.30;87.20;97851.99;1778537;81;20987;-80
2021/09/25 01:08:38;;;;;;;13.25;8.68;;;;;;;7.28;87.03;97851.60;1770793;80;21010;-81
2021/09/25 01:11:04;;;;;;;13.55;7.80;;;;;;;7.25;86.53;97847.27;1771176;81;21021;-80
2021/09/25 01:13:31;;;;;;;15.00;8.00;;;;;;;7.20;86.78;97855.70;1757617;81;21028;-81
2021/09/25 01:15:57;;;;;;;16.48;9.08;;;;;;;7.18;87.21;97856.19;1779445;81;21401;-81
2021/09/25 01:18:24;;;;;;;12.98;7.35;;;;;;;7.16;86.72;97856.22;1779269;80;21064;-81
2021/09/25 01:20:50;;;;;;;13.20;7.25;;;;;;;7.11;87.36;97862.87;1779332;81;21449;-80
2021/09/25 01:23:17;;;;;;;11.10;7.05;;;;;;;7.10;90.25;97865.55;1756481;80;20982;-81
2021/09/25 01:25:43;;;;;;;11.48;6.90;;;;;;;7.11;90.82;97862.87;1753521;81;20986;-81
2021/09/25 01:28:10;;;;;;;16.40;7.08;;;;;;;7.14;89.74;97868.53;1772014;80;21064;-81
2021/09/25 01:30:37;;;;;;;14.20;7.78;;;;;;;7.16;88.56;97867.19;1770469;80;20982;-81
2021/09/25 01:33:03;;;;;;;13.08;6.72;;;;;;;7.18;88.29;97866.73;1724776;83;20983;-81
2021/09/25 01:35:31;;;;;;;12.23;7.22;;;;;;;7.16;89.98;97873.78;1734794;81;21037;-81
2021/09/25 01:37:58;;;;;;;12.13;7.05;;;;;;;7.14;89.65;97877.75;1735034;82;21006;-81
2021/09/25 01:40:25;;;;;;;9.88;6.25;;;;;;;7.19;89.28;97879.01;1745750;81;20960;-81
2021/09/25 01:42:52;;;;;;;12.78;6.60;;;;;;;7.21;89.83;97876.77;1779003;81;21056;-81
2021/09/25 01:45:19;;;;;;;10.98;6.15;;;;;;;7.24;89.47;97887.27;1765539;81;20987;-81
2021/09/25 01:47:46;;;;;;;11.08;5.58;;;;;;;7.27;89.35;97878.44;1751762;82;21409;-81
2021/09/25 01:50:15;;;;;;;9.08;5.95;;;;;;;7.32;88.67;97883.61;1751970;82;21003;-81
2021/09/25 01:52:42;;;;;;;11.43;6.33;;;;;;;7.36;88.71;97888.78;1735253;82;21459;-80
2021/09/25 01:55:10;;;;;;;8.40;5.40;;;;;;;7.39;88.52;97892.69;1727005;82;20968;-80
2021/09/25 01:57:37;;;;;;;10.72;5.35;;;;;;;7.40;88.38;97894.89;1745120;81;20979;-80
2021/09/25 02:00:07;;;;;;;10.25;5.35;;;;;;;7.38;88.35;97894.91;1764563;81;20958;-79
2021/09/25 02:02:33;;;;;;;10.70;5.67;;;;;;;7.39;88.26;97902.36;1765110;81;20967;-80
2021/09/25 02:05:00;;;;;;;9.50;5.55;;;;;;;7.40;88.10;97906.29;1745324;81;21022;-80
2021/09/25 02:07:26;;;;;;;7.97;5.20;;;;;;;7.39;88.13;97902.36;1734865;82;21037;-80
2021/09/25 02:09:53;;;;;;;15.13;5.35;;;;;;;7.39;88.10;97906.31;1734996;82;21407;-80
2021/09/25 02:12:19;;;;;;;7.03;5.00;;;;;;;7.37;87.71;97911.64;1737429;81;21025;-81
2021/09/25 02:14:46;;;;;;;9.43;5.60;;;;;;;7.36;87.68;97919.10;1751695;82;21059;-80
2021/09/25 02:17:14;;;;;;;10.25;5.75;;;;;;;7.35;87.56;97919.16;1751684;82;20988;-80
2021/09/25 02:19:41;;;;;;;8.90;5.75;;;;;;;7.34;87.73;97920.91;1751661;82;21015;-80
2021/09/25 02:22:08;;;;;;;8.63;6.20;;;;;;;7.37;87.59;97925.26;1751477;82;21034;-80
2021/09/25 02:24:35;;;;;;;13.78;6.83;;;;;;;7.35;87.40;97924.43;1754237;82;21015;-80
2021/09/25 02:27:02;;;;;;;12.28;6.53;;;;;;;7.33;87.17;97924.45;1748328;82;20971;-80
2021/09/25 02:29:29;;;;;;;10.03;5.83;;;;;;;7.30;87.11;97929.77;1734876;82;21080;-80
2021/09/25 02:31:55;;;;;;;10.00;6.53;;;;;;;7.27;86.97;97928.52;1734946;83;21084;-81
2021/09/25 02:34:22;;;;;;;11.08;6.12;;;;;;;7.24;86.82;97931.20;1744665;81;21050;-80
2021/09/25 02:36:48;;;;;;;8.83;5.58;;;;;;;7.18;86.87;97934.80;1773357;81;20986;-80
2021/09/25 02:39:15;;;;;;;8.55;5.50;;;;;;;7.10;87.32;97929.66;1776018;81;21049;-81
2021/09/25 02:41:41;;;;;;;9.35;5.40;;;;;;;7.06;87.23;97933.70;1776667;81;20950;-80
2021/09/25 02:44:08;;;;;;;12.88;5.42;;;;;;;7.03;87.76;97944.28;1759158;81;20983;-80
2021/09/25 02:46:34;;;;;;;7.28;5.10;;;;;;;6.99;87.98;97945.63;1766708;81;21357;-80
2021/09/25 02:49:01;;;;;;;7.25;4.97;;;;;;;6.96;87.22;97952.29;1745389;82;21033;-80
2021/09/25 02:51:27;;;;;;;10.40;5.15;;;;;;;6.91;87.24;97952.81;1744934;82;21002;-80
2021/09/25 02:53:54;;;;;;;9.53;5.35;;;;;;;6.90;87.15;97960.73;1744919;82;21451;-81
2021/09/25 02:56:20;;;;;;;7.67;4.47;;;;;;;6.85;87.22;97954.23;1745207;82;21451;-80
2021/09/25 02:58:47;;;;;;;9.55;6.17;;;;;;;6.79;88.35;97952.98;1768698;81;20985;-80
2021/09/25 03:01:13;;;;;;;10.13;5.33;;;;;;;6.77;87.32;97960.05;1748024;81;21024;-80
2021/09/25 03:03:40;;;;;;;7.65;4.92;;;;;;;6.77;87.08;97961.36;1764960;81;21456;-80
2021/09/25 03:06:06;;;;;;;6.33;4.72;;;;;;;6.70;88.59;97968.05;1770552;80;20983;-80
2021/09/25 03:08:33;;;;;;;8.63;4.85;;;;;;;6.70;87.46;97973.31;1775636;81;20943;-80
2021/09/25 03:10:59;;;;;;;8.00;5.42;;;;;;;6.66;88.48;97976.88;1750945;81;21461;-80
2021/09/25 03:13:26;;;;;;;10.23;5.03;;;;;;;6.66;87.79;97976.88;1765102;81;21080;-81
2021/09/25 03:15:52;;;;;;;8.73;5.45;;;;;;;6.66;87.95;97983.89;1765203;81;21405;-81
2021/09/25 03:18:19;;;;;;;7.72;5.00;;;;;;;6.62;88.65;97980.87;1761399;81;20946;-80
2021/09/25 03:20:45;;;;;;;9.30;5.97;;;;;;;6.58;88.62;97977.42;1744950;82;21024;-80
2021/09/25 03:23:12;;;;;;;11.10;5.53;;;;;;;6.56;87.92;97982.70;1745020;82;21435;-80
2021/09/25 03:25:38;;;;;;;8.40;5.15;;;;;;;6.51;88.00;97989.80;1744874;82;21011;-80
2021/09/25 03:28:05;;;;;;;10.40;5.75;;;;;;;6.41;88.64;97986.43;1762081;81;20943;-80
2021/09/25 03:30:32;;;;;;;11.70;5.37;;;;;;;6.43;88.19;97989.90;1744963;82;21006;-80
2021/09/25 03:32:58;;;;;;;9.25;5.08;;;;;;;6.45;88.10;97980.67;1745054;82;21014;-80
2021/09/25 03:35:26;;;;;;;7.05;4.45;;;;;;;6.44;88.39;97984.20;1748257;81;21881;-80
2021/09/25 03:37:52;;;;;;;6.45;4.17;;;;;;;6.44;88.62;97993.41;1747908;82;21435;-80
2021/09/25 03:40:19;;;;;;;8.18;4.33;;;;;;;6.46;88.44;97988.55;1751946;81;20969;-80
2021/09/25 03:42:47;;;;;;;7.58;3.92;;;;;;;6.52;88.39;97996.80;1751278;82;21095;-80
2021/09/25 03:45:13;;;;;;;5.47;4.15;;;;;;;6.54;88.28;97997.66;1757096;81;21011;-80
2021/09/25 03:47:40;;;;;;;7.60;4.00;;;;;;;6.57;88.09;97997.61;1757313;81;21020;-80
2021/09/25 03:50:08;;;;;;;7.25;4.10;;;;;;;6.59;88.13;97992.32;1757819;82;21418;-80
2021/09/25 03:52:35;;;;;;;8.98;3.92;;;;;;;6.63;88.01;97991.83;1749547;81;21042;-80
2021/09/25 03:55:01;;;;;;;7.92;4.17;;;;;;;6.67;87.92;97989.15;1739464;82;21420;-81
2021/09/25 03:57:28;;;;;;;5.62;3.75;;;;;;;6.69;87.74;97991.77;1750910;81;20979;-81
2021/09/25 03:59:54;;;;;;;6.62;4.65;;;;;;;6.71;87.77;97997.88;1778688;81;20978;-81
2021/09/25 04:02:21;;;;;;;7.80;4.50;;;;;;;6.72;87.72;97997.86;1778768;81;21392;-81
2021/09/25 04:04:47;;;;;;;8.15;4.10;;;;;;;6.73;87.64;97996.11;1767284;80;20970;-81
2021/09/25 04:07:14;;;;;;;10.05;4.72;;;;;;;6.75;87.55;98004.84;1747852;82;21002;-81
2021/09/25 04:09:40;;;;;;;7.87;4.53;;;;;;;6.74;87.50;98000.01;1722689;82;21386;-81
2021/09/25 04:12:07;;;;;;;11.20;4.80;;;;;;;6.73;87.18;98011.91;1747882;82;21448;-81
2021/09/25 04:14:33;;;;;;;9.80;4.58;;;;;;;6.68;86.90;98014.59;1747874;82;20970;-82
2021/09/25 04:17:00;;;;;;;9.05;4.35;;;;;;;6.63;86.94;98011.58;1757931;81;20973;-81
2021/09/25 04:19:26;;;;;;;6.85;4.58;;;;;;;6.56;86.96;98012.13;1751241;82;21436;-81
2021/09/25 04:21:53;;;;;;;5.00;4.00;;;;;;;6.46;87.04;98021.90;1757893;81;21000;-81
2021/09/25 04:24:20;;;;;;;6.47;4.42;;;;;;;6.34;87.21;98031.70;1755874;82;20992;-81
2021/09/25 04:26:46;;;;;;;8.13;4.78;;;;;;;6.26;87.59;98036.60;1745808;81;20959;-82
2021/09/25 04:29:13;;;;;;;6.58;4.35;;;;;;;6.19;87.98;98033.20;1766311;81;20978;-81
2021/09/25 04:31:40;;;;;;;9.70;4.37;;;;;;;6.17;87.90;98034.95;1747911;82;21038;-81
2021/09/25 04:34:07;;;;;;;7.62;4.90;;;;;;;6.12;88.50;98031.08;1748362;81;21061;-81
2021/09/25 04:36:36;;;;;;;7.08;4.22;;;;;;;6.13;88.21;98039.82;1750950;82;21404;-80
2021/09/25 04:39:02;;;;;;;6.90;4.17;;;;;;;6.11;88.41;98034.59;1757317;81;20984;-81
2021/09/25 04:41:29;;;;;;;13.43;4.42;;;;;;;6.12;87.93;98043.34;1757029;81;21000;-81
2021/09/25 04:43:55;;;;;;;5.40;4.05;;;;;;;6.13;88.14;98042.45;1757182;82;21508;-82
2021/09/25 04:46:22;;;;;;;8.60;4.37;;;;;;;6.13;88.47;98038.50;1752450;81;20959;-82
2021/09/25 04:48:48;;;;;;;8.58;4.75;;;;;;;6.14;88.67;98050.80;1739144;82;20994;-81
2021/09/25 04:51:17;;;;;;;7.03;4.70;;;;;;;6.20;88.21;98049.41;1714569;82;21392;-82
2021/09/25 04:53:44;;;;;;;9.65;4.50;;;;;;;6.24;87.83;98048.48;1739333;82;21069;-81
2021/09/25 04:56:12;;;;;;;13.03;4.67;;;;;;;6.28;88.11;98056.78;1739372;82;21085;-81
2021/09/25 04:58:39;;;;;;;13.18;4.58;;;;;;;6.34;88.18;98058.02;1758521;81;20999;-81
2021/09/25 05:01:06;;;;;;;11.40;4.53;;;;;;;6.36;87.88;98058.44;1739445;82;21053;-82
2021/09/25 05:03:33;;;;;;;15.53;4.67;;;;;;;6.41;87.80;98066.72;1739312;82;20975;-81
2021/09/25 05:06:01;;;;;;;15.32;4.58;;;;;;;6.42;87.59;98073.72;1739427;82;21412;-82
2021/09/25 05:08:28;;;;;;;9.83;4.80;;;;;;;6.49;87.47;98068.38;1739440;82;21003;-81
2021/09/25 05:10:54;;;;;;;12.90;5.03;;;;;;;6.53;87.39;98079.30;1746893;82;20981;-81
2021/09/25 05:13:21;;;;;;;9.30;4.25;;;;;;;6.55;87.12;98074.45;1757175;81;21076;-81
2021/09/25 05:15:47;;;;;;;11.08;5.12;;;;;;;6.58;87.19;98078.38;1757146;81;20981;-81
2021/09/25 05:18:14;;;;;;;8.70;4.75;;;;;;;6.61;86.82;98081.41;1755802;82;20973;-80
2021/09/25 05:20:40;;;;;;;9.45;4.78;;;;;;;6.62;86.84;98073.93;1757244;81;21036;-81
2021/09/25 05:23:06;;;;;;;7.47;4.47;;;;;;;6.64;86.62;98079.19;1748338;81;21002;-81
2021/09/25 05:25:33;;;;;;;10.63;4.87;;;;;;;6.66;86.67;98078.27;1739433;82;20982;-81
2021/09/25 05:27:59;;;;;;;9.58;5.17;;;;;;;6.68;86.48;98082.21;1739402;82;20994;-81
2021/09/25 05:30:26;;;;;;;7.45;4.53;;;;;;;6.70;86.56;98079.98;1745324;82;20996;-81
2021/09/25 05:32:52;;;;;;;10.72;4.42;;;;;;;6.72;86.48;98073.36;1757147;81;21438;-81
2021/09/25 05:35:19;;;;;;;6.55;4.30;;;;;;;6.74;86.63;98075.08;1775339;81;21005;-81
2021/09/25 05:37:45;;;;;;;7.97;4.75;;;;;;;6.79;86.67;98070.20;1779185;81;21047;-81
2021/09/25 05:40:12;;;;;;;9.45;5.00;;;;;;;6.85;86.73;98071.45;1773324;80;20989;-81
2021/09/25 05:42:39;;;;;;;10.18;4.95;;;;;;;6.91;86.68;98077.07;1753449;81;21013;-81
2021/09/25 05:45:07;;;;;;;7.50;4.67;;;;;;;6.95;86.46;98079.66;1753455;81;21006;-81
2021/09/25 05:47:34;;;;;;;9.35;5.35;;;;;;;7.04;86.35;98080.41;1753422;81;21065;-81
2021/09/25 05:50:00;;;;;;;7.17;5.20;;;;;;;7.09;86.47;98073.30;1753376;81;21601;-81
2021/09/25 05:52:27;;;;;;;11.22;5.53;;;;;;;7.17;86.26;98072.76;1759590;79;20970;-81
2021/09/25 05:54:53;;;;;;;7.28;4.95;;;;;;;7.23;86.08;98080.56;1784083;80;21336;-80
2021/09/25 05:57:20;;;;;;;7.03;4.72;;;;;;;7.31;85.84;98081.77;1784426;80;21054;-80
2021/09/25 05:59:47;;;;;;;10.13;5.60;;;;;;;7.37;86.36;98075.11;1784325;80;21006;-80
2021/09/25 06:02:14;;;;;;;9.80;5.90;;;;;;;7.45;86.24;98075.42;1784598;80;20970;-81
2021/09/25 06:04:40;;;;;;;10.90;5.60;;;;;;;7.53;86.03;98082.78;1772140;80;20990;-80
2021/09/25 06:07:11;;;;;;;12.23;5.12;;;;;;;7.61;86.09;98083.97;1753316;81;21424;-81
2021/09/25 06:09:36;;;;;;;9.58;5.22;;;;;;;7.71;85.85;98088.20;1753241;82;21442;-80
2021/09/25 06:12:03;;;;;;;11.50;4.85;;;;;;;7.83;85.70;98088.87;1753462;82;21057;-81
2021/09/25 06:14:30;;;;;;;8.65;5.00;;;;;;;7.93;85.70;98086.06;1753427;81;21025;-81
2021/09/25 06:16:57;;;;;;;12.33;5.00;;;;;;;8.05;85.59;98081.45;1753808;81;21002;-81
2021/09/25 06:19:23;;;;;;;8.20;5.25;;;;;;;8.15;85.53;98084.34;1753454;81;21412;-81
2021/09/25 06:21:50;;;;;;;9.35;5.25;;;;;;;8.27;85.63;98083.25;1753412;81;20982;-81
2021/09/25 06:24:16;;;;;;;9.95;5.22;;;;;;;8.39;85.60;98083.47;1782919;80;20997;-80
2021/09/25 06:26:43;;;;;;;10.68;5.08;;;;;;;8.53;85.59;98084.57;1784265;80;21014;-80
2021/09/25 06:29:09;;;;;;;14.68;6.58;;;;;;;8.66;85.47;98086.51;1774248;80;20962;-81
2021/09/25 06:31:36;;;;;;;23.02;11.73;;;;;;;8.79;85.61;98087.13;1753280;82;21044;-81
2021/09/25 06:34:02;;;;;;;20.72;13.05;;;;;;;8.92;85.54;98089.05;1753295;82;21021;-81
2021/09/25 06:36:32;;;;;;;12.53;7.17;;;;;;;9.05;85.33;98092.30;1752958;82;20979;-81
2021/09/25 06:38:59;;;;;;;10.10;5.47;;;;;;;9.17;85.25;98091.16;1760763;81;20977;-81
2021/09/25 06:41:25;;;;;;;13.43;5.90;;;;;;;9.30;85.00;98098.36;1750945;81;21035;-80
2021/09/25 06:43:52;;;;;;;6.62;4.60;;;;;;;9.41;84.78;98094.15;1757267;81;21413;-80
2021/09/25 06:46:19;;;;;;;9.53;5.33;;;;;;;9.56;84.07;98094.25;1757064;81;21001;-81
2021/09/25 06:48:49;;;;;;;11.50;5.70;;;;;;;9.70;84.21;98094.35;1742561;81;20991;-81
2021/09/25 06:51:17;;;;;;;7.75;5.30;;;;;;;9.85;83.84;98092.64;1757056;81;21016;-81
2021/09/25 06:53:44;;;;;;;9.88;5.53;;;;;;;9.98;83.07;98099.84;1742194;81;20994;-81
2021/09/25 06:56:10;;;;;;;8.25;4.83;;;;;;;10.08;83.05;98105.77;1739373;81;21463;-81
2021/09/25 06:58:37;;;;;;;10.05;5.00;;;;;;;10.19;82.57;98107.26;1739500;81;20951;-81
2021/09/25 07:01:03;;;;;;;7.92;5.03;;;;;;;10.28;82.14;98107.02;1755954;80;21008;-81
2021/09/25 07:03:30;;;;;;;8.78;5.17;;;;;;;10.35;82.13;98104.64;1757174;82;20973;-81
2021/09/25 07:05:56;;;;;;;7.28;4.37;;;;;;;10.44;81.96;98104.86;1757448;82;21466;-81
2021/09/25 07:08:23;;;;;;;10.43;5.55;;;;;;;10.51;81.71;98110.39;1757395;82;20950;-81
2021/09/25 07:10:50;;;;;;;11.70;4.90;;;;;;;10.61;81.25;98107.05;1757318;82;20949;-81
2021/09/25 07:13:18;;;;;;;8.73;5.22;;;;;;;10.73;79.48;98108.48;1757084;82;21004;-81
2021/09/25 07:15:44;;;;;;;10.05;4.72;;;;;;;10.87;79.73;98109.88;1757271;81;20949;-81
2021/09/25 07:18:11;;;;;;;9.43;4.47;;;;;;;11.00;80.19;98102.44;1757182;81;21501;-81
2021/09/25 07:20:38;;;;;;;7.03;4.83;;;;;;;11.07;79.90;98102.20;1747091;81;20971;-81
2021/09/25 07:23:05;;;;;;;8.70;4.62;;;;;;;11.17;79.92;98107.23;1757136;81;20971;-81
2021/09/25 07:25:33;;;;;;;9.65;4.30;;;;;;;11.26;79.35;98106.08;1778778;81;21018;-81
2021/09/25 07:28:00;;;;;;;9.05;4.40;;;;;;;11.35;78.70;98111.95;1778632;81;21041;-81
2021/09/25 07:30:26;;;;;;;7.65;4.08;;;;;;;11.49;79.00;98120.83;1758740;81;21029;-81
2021/09/25 07:32:53;;;;;;;34.78;21.30;;;;;;;11.60;78.08;98119.63;1748003;82;21022;-81
2021/09/25 07:35:21;;;;;;;11.95;7.45;;;;;;;11.69;77.79;98121.98;1753270;81;21028;-81
2021/09/25 07:37:48;;;;;;;8.85;4.28;;;;;;;11.80;76.53;98117.66;1759279;79;21479;-81
2021/09/25 07:40:14;;;;;;;7.78;3.77;;;;;;;11.93;77.09;98127.87;1757339;82;20984;-81
2021/09/25 07:42:41;;;;;;;5.62;3.00;;;;;;;12.01;74.84;98125.84;1757297;82;21055;-80
2021/09/25 07:45:09;;;;;;;6.50;3.12;;;;;;;12.10;74.25;98129.55;1757466;81;21398;-81
2021/09/25 07:47:36;;;;;;;5.25;3.42;;;;;;;12.23;76.01;98129.11;1756868;81;22145;-81
2021/09/25 07:50:06;;;;;;;6.65;3.17;;;;;;;12.32;74.66;98130.58;1757165;81;20996;-80
2021/09/25 07:52:35;;;;;;;6.62;3.58;;;;;;;12.43;74.58;98133.75;1749261;81;20931;-81
2021/09/25 07:55:01;;;;;;;7.58;3.12;;;;;;;12.52;73.53;98132.55;1739627;82;21455;-81
2021/09/25 07:57:28;;;;;;;6.35;2.83;;;;;;;12.63;73.29;98138.83;1739552;82;20991;-81
2021/09/25 07:59:54;;;;;;;7.60;3.10;;;;;;;12.74;72.28;98140.63;1745938;82;20985;-81
2021/09/25 08:02:21;;;;;;;5.70;2.77;;;;;;;12.89;72.53;98138.34;1757244;81;21012;-81
2021/09/25 08:04:47;;;;;;;5.97;2.70;;;;;;;13.00;71.70;98137.95;1757123;81;21478;-81
2021/09/25 08:07:13;;;;;;;6.08;2.90;;;;;;;13.07;70.24;98146.09;1757089;81;21023;-80
2021/09/25 08:09:40;;;;;;;6.00;2.87;;;;;;;13.16;70.57;98145.75;1757154;81;20977;-81
2021/09/25 08:12:07;;;;;;;4.67;2.47;;;;;;;13.25;71.13;98144.52;1747795;81;21018;-81
2021/09/25 08:14:33;;;;;;;6.62;2.83;;;;;;;13.36;68.38;98139.28;1739451;82;21034;-81
2021/09/25 08:17:00;;;;;;;5.37;2.47;;;;;;;13.46;68.49;98137.51;1739474;82;20975;-81
2021/09/25 08:19:26;;;;;;;8.68;2.90;;;;;;;13.59;68.19;98137.92;1739497;82;21460;-81
2021/09/25 08:21:53;;;;;;;4.67;2.55;;;;;;;13.73;64.99;98139.17;1739638;80;21404;-80
2021/09/25 08:24:19;;;;;;;5.25;2.55;;;;;;;13.89;63.02;98144.75;1756677;81;20990;-81
2021/09/25 08:26:46;;;;;;;7.22;2.67;;;;;;;14.08;61.73;98135.52;1778399;81;21080;-80
2021/09/25 08:29:12;;;;;;;6.62;2.80;;;;;;;14.22;64.10;98133.63;1778238;80;20990;-80
2021/09/25 08:31:39;;;;;;;8.28;2.80;;;;;;;14.32;63.88;98131.91;1778549;81;20974;-80
2021/09/25 08:34:05;;;;;;;5.40;2.50;;;;;;;14.39;65.25;98134.25;1770352;81;21032;-81
2021/09/25 08:36:32;;;;;;;5.45;2.90;;;;;;;14.43;65.07;98129.64;1750777;80;21023;-81
2021/09/25 08:38:58;;;;;;;5.62;2.15;;;;;;;14.48;60.60;98134.76;1757228;81;21489;-80
2021/09/25 08:41:25;;;;;;;4.37;2.15;;;;;;;14.56;64.42;98134.42;1746230;82;20991;-80
2021/09/25 08:43:52;;;;;;;5.85;2.40;;;;;;;14.63;59.64;98135.91;1736539;83;21070;-80
2021/09/25 08:46:18;;;;;;;7.30;2.60;;;;;;;14.70;63.14;98127.17;1744984;82;21026;-81
2021/09/25 08:48:45;;;;;;;4.03;2.83;;;;;;;14.75;61.27;98120.70;1744825;82;21009;-80
2021/09/25 08:51:12;;;;;;;11.78;6.70;;;;;;;14.82;62.24;98123.97;1745317;80;21066;-81
2021/09/25 08:53:38;;;;;;;4.08;2.50;;;;;;;14.90;60.66;98127.17;1775536;81;21037;-80
2021/09/25 08:56:05;;;;;;;6.00;2.58;;;;;;;14.99;59.41;98121.88;1775459;81;21003;-81
2021/09/25 08:58:31;;;;;;;3.92;2.02;;;;;;;15.10;59.53;98118.72;1775516;81;20982;-81
2021/09/25 09:00:58;;;;;;;4.58;2.12;;;;;;;15.20;60.58;98111.63;1775582;81;21002;-81
2021/09/25 09:03:35;;;;;;;3.12;1.52;;;;;;;15.38;54.33;98114.77;1773117;81;20979;-81
2021/09/25 09:06:18;;;;;;;5.37;1.90;;;;;;;15.51;56.60;98108.37;1744722;82;21041;-80
2021/09/25 09:08:49;;;;;;;5.80;2.30;;;;;;;15.66;54.18;98109.41;1745159;82;20991;-81
2021/09/25 09:11:20;;;;;;;3.45;1.67;;;;;;;15.79;54.55;98114.17;1744825;82;21033;-81
2021/09/25 09:13:52;;;;;;;4.55;1.85;;;;;;;15.89;52.58;98106.55;1744862;82;21038;-80
2021/09/25 09:16:18;;;;;;;2.33;1.60;;;;;;;15.97;55.05;98107.08;1754577;80;20961;-81
2021/09/25 09:18:48;;;;;;;4.72;2.00;;;;;;;16.01;52.34;98108.66;1765323;81;21028;-81
2021/09/25 09:21:25;;;;;;;6.08;2.62;;;;;;;16.08;55.25;98108.73;1764966;81;21048;-81
2021/09/25 09:24:03;;;;;;;3.33;1.77;;;;;;;16.12;56.18;98103.23;1747704;80;21020;-81
2021/09/25 09:26:34;;;;;;;2.37;1.50;;;;;;;16.15;55.46;98120.48;1765191;80;21005;-81
2021/09/25 09:29:04;;;;;;;4.62;2.35;;;;;;;16.19;55.21;98106.02;1764222;81;21028;-81
2021/09/25 09:31:31;;;;;;;2.27;1.67;;;;;;;16.18;55.51;98109.14;1764993;81;21484;-81
2021/09/25 09:34:01;;;;;;;3.52;1.98;;;;;;;16.20;55.12;98102.39;1761348;80;20971;-81
2021/09/25 09:36:37;;;;;;;4.12;1.65;;;;;;;16.25;56.58;98104.36;1747091;82;22012;-81
2021/09/25 09:39:14;;;;;;;4.60;2.37;;;;;;;16.33;50.90;98107.48;1747763;82;20994;-81
2021/09/25 09:41:49;;;;;;;3.58;1.90;;;;;;;16.41;50.43;98108.45;1772366;81;21041;-81
2021/09/25 09:44:25;;;;;;;2.15;1.60;;;;;;;16.49;50.69;98111.57;1748248;81;20954;-81
2021/09/25 09:46:58;;;;;;;2.95;1.72;;;;;;;16.58;52.46;98108.03;1747765;82;21428;-81
2021/09/25 09:49:30;;;;;;;3.87;1.90;;;;;;;16.71;50.84;98109.58;1747790;82;21025;-81
2021/09/25 09:52:07;;;;;;;3.83;2.00;;;;;;;16.85;53.17;98106.16;1747666;81;21034;-81
2021/09/25 09:54:38;;;;;;;3.12;1.70;;;;;;;16.97;51.13;98101.96;1751097;82;21004;-80
2021/09/25 09:57:18;;;;;;;6.05;1.85;;;;;;;17.09;53.64;98094.64;1757197;81;21048;-81
2021/09/25 09:59:49;;;;;;;3.12;1.65;;;;;;;17.19;51.98;98092.80;1757086;81;20988;-80
2021/09/25 10:02:16;;;;;;;6.75;2.00;;;;;;;17.31;52.87;98096.63;1757361;81;21035;-81
2021/09/25 10:04:43;;;;;;;4.25;2.08;;;;;;;17.41;53.22;98088.45;1750226;80;20963;-81
2021/09/25 10:07:10;;;;;;;4.15;1.80;;;;;;;17.51;52.18;98084.30;1739411;82;21015;-81
2021/09/25 10:09:40;;;;;;;4.60;2.05;;;;;;;17.62;51.89;98072.10;1739346;82;21456;-81
2021/09/25 10:12:11;;;;;;;2.95;1.82;;;;;;;17.66;51.52;98076.34;1744270;81;21042;-82
2021/09/25 10:14:41;;;;;;;3.33;2.20;;;;;;;17.73;52.25;98075.52;1778477;81;21058;-81
2021/09/25 10:17:12;;;;;;;3.33;1.80;;;;;;;17.85;48.38;98075.28;1765169;81;21021;-81
2021/09/25 10:19:41;;;;;;;2.98;1.60;;;;;;;17.96;51.18;98074.16;1747718;82;20990;-81
2021/09/25 10:22:22;;;;;;;8.83;5.60;;;;;;;18.04;50.87;98075.93;1747864;80;20959;-81
2021/09/25 10:25:03;;;;;;;30.25;21.20;;;;;;;18.09;49.55;98081.53;1747849;82;21018;-82
2021/09/25 10:27:37;;;;;;;10.50;5.30;;;;;;;18.18;51.16;98077.81;1753065;81;20965;-82
2021/09/25 10:30:08;;;;;;;;;;;;;;;18.33;51.53;98079.19;1762419;81;21442;-81
2021/09/25 10:32:53;;;;;;;4.85;2.00;;;;;;;18.81;50.01;98078.11;1761783;81;20084;-81
2021/09/25 10:35:25;;;;;;;4.47;1.90;;;;;;;19.79;47.31;98074.14;1750300;82;21032;-82
2021/09/25 10:37:59;;;;;;;4.72;1.77;;;;;;;20.94;43.56;98073.61;1750266;81;21021;-82
2021/09/25 10:40:32;;;;;;;5.10;1.95;;;;;;;22.10;43.79;98066.14;1749742;81;20973;-82
2021/09/25 10:43:06;;;;;;;5.25;1.90;;;;;;;23.16;41.72;98059.80;1735335;82;21409;-82
2021/09/25 10:45:35;;;;;;;;;;;;;;;24.22;40.81;98060.69;1740324;82;20982;-82
2021/09/25 10:48:19;;;;;;;2.77;1.60;;;;;;;25.28;39.79;98059.73;1754786;81;20147;-82
2021/09/25 10:50:59;;;;;;;4.25;1.90;;;;;;;26.07;35.15;98059.38;1746944;81;20994;-82
2021/09/25 10:53:34;;;;;;;5.10;1.87;;;;;;;26.93;31.99;98062.75;1746756;82;21014;-82
2021/09/25 10:56:05;;;;;;;4.90;2.05;;;;;;;27.86;36.85;98063.25;1753413;82;21449;-82
2021/09/25 10:58:38;;;;;;;3.22;1.90;;;;;;;28.63;32.26;98062.39;1774750;81;21035;-82
2021/09/25 11:01:15;;;;;;;4.10;2.07;;;;;;;29.32;33.64;98067.95;1779470;80;20969;-82
2021/09/25 11:03:52;;;;;;;4.30;1.80;;;;;;;29.68;30.23;98058.70;1779101;81;21433;-82
2021/09/25 11:06:45;;;;;;;3.83;1.92;;;;;;;29.88;25.05;98057.03;1779173;80;21004;-81
2021/09/25 11:09:34;;;;;;;4.92;2.30;;;;;;;30.35;27.07;98057.46;1778434;80;21025;-81
2021/09/25 11:12:16;;;;;;;5.45;1.80;;;;;;;31.16;28.38;98064.86;1754554;80;21576;-81
2021/09/25 11:14:54;;;;;;;3.77;2.00;;;;;;;31.09;26.06;98057.86;1753269;82;21034;-81
2021/09/25 11:17:25;;;;;;;3.83;2.10;;;;;;;31.41;27.75;98056.07;1753609;81;21416;-81
2021/09/25 11:20:09;;;;;;;3.40;2.10;;;;;;;31.71;27.53;98053.52;1753297;82;20986;-81
2021/09/25 11:22:44;;;;;;;4.03;2.30;;;;;;;31.79;22.30;98056.72;1757034;81;21009;-79
2021/09/25 11:25:15;;;;;;;2.40;2.08;;;;;;;32.14;23.07;98054.45;1753253;81;20990;-79
2021/09/25 11:27:49;;;;;;;3.42;2.10;;;;;;;32.50;26.12;98053.49;1753513;81;21041;-80
2021/09/25 11:30:21;;;;;;;3.83;1.80;;;;;;;33.14;26.25;98056.31;1753282;81;21105;-79
2021/09/25 11:32:54;;;;;;;3.65;1.92;;;;;;;33.36;26.14;98059.13;1754211;81;21455;-79
2021/09/25 11:35:28;;;;;;;2.55;1.82;;;;;;;33.20;24.73;98053.31;1777643;79;21076;-79
2021/09/25 11:38:03;;;;;;;3.77;1.80;;;;;;;33.59;25.26;98051.31;1765108;80;21418;-79
2021/09/25 11:40:37;;;;;;;4.00;2.12;;;;;;;33.98;24.45;98054.70;1765047;81;20973;-82
2021/09/25 11:43:13;;;;;;;3.25;1.92;;;;;;;34.37;24.33;98038.79;1751396;81;20998;-81